createdAt,value
2019-03-11T00:01:28.146Z,1.93
2019-03-11T00:03:57.786Z,2.08
2019-03-11T00:06:27.750Z,2.06
2019-03-11T00:08:57.418Z,2.14
2019-03-11T00:11:27.402Z,2.20
2019-03-11T00:13:57.050Z,2.22
2019-03-11T00:16:27.216Z,2.36
2019-03-11T00:18:57.887Z,2.34
2019-03-11T00:21:27.934Z,2.47
2019-03-11T00:23:57.999Z,2.51
2019-03-11T00:26:28.067Z,2.64
2019-03-11T00:28:58.285Z,2.56
2019-03-11T00:31:28.658Z,2.63
2019-03-11T00:33:58.294Z,2.74
2019-03-11T00:36:28.480Z,2.82
2019-03-11T00:38:58.368Z,2.86
2019-03-11T00:41:28.286Z,2.88
2019-03-11T00:43:58.211Z,2.87
2019-03-11T00:46:28.829Z,2.95
2019-03-11T00:48:58.726Z,2.94
2019-03-11T00:51:28.696Z,2.96
2019-03-11T00:53:58.678Z,3.07
2019-03-11T00:56:28.474Z,3.05
2019-03-11T00:58:58.315Z,3.11
2019-03-11T01:01:28.066Z,3.15
2019-03-11T01:03:57.995Z,3.11
2019-03-11T01:06:28.563Z,3.22
2019-03-11T01:08:58.250Z,3.18
2019-03-11T01:11:28.141Z,3.15
2019-03-11T01:13:57.769Z,3.17
2019-03-11T01:16:27.395Z,3.17
2019-03-11T01:18:57.124Z,3.16
2019-03-11T01:21:27.064Z,3.18
2019-03-11T01:23:56.742Z,3.10
2019-03-11T01:26:26.415Z,3.09
2019-03-11T01:28:56.048Z,3.24
2019-03-11T01:31:25.697Z,3.18
2019-03-11T01:33:55.588Z,3.15
2019-03-11T01:36:25.523Z,3.18
2019-03-11T01:38:55.506Z,3.24
2019-03-11T01:41:25.369Z,3.13
2019-03-11T01:43:55.887Z,3.12
2019-03-11T01:46:25.528Z,3.19
2019-03-11T01:48:55.503Z,3.14
2019-03-11T01:51:25.151Z,3.14
2019-03-11T01:53:55.594Z,3.08
2019-03-11T01:56:25.473Z,3.16
2019-03-11T01:58:56.205Z,3.15
2019-03-11T02:01:25.852Z,3.25
2019-03-11T02:03:55.499Z,3.19
2019-03-11T02:06:25.311Z,3.19
2019-03-11T02:08:56.209Z,3.21
2019-03-11T02:11:26.139Z,3.14
2019-03-11T02:13:55.924Z,3.12
2019-03-11T02:16:25.655Z,3.19
2019-03-11T02:18:55.819Z,3.15
2019-03-11T02:21:25.584Z,3.17
2019-03-11T02:23:55.468Z,3.20
2019-03-11T02:26:25.436Z,3.18
2019-03-11T02:28:55.342Z,3.18
2019-03-11T02:31:25.040Z,3.21
2019-03-11T02:33:54.709Z,3.23
2019-03-11T02:36:24.796Z,3.31
2019-03-11T02:38:54.831Z,3.33
2019-03-11T02:41:24.884Z,3.32
2019-03-11T02:43:55.360Z,3.23
2019-03-11T02:46:25.016Z,3.30
2019-03-11T02:48:54.654Z,3.20
2019-03-11T02:51:24.440Z,3.25
2019-03-11T02:53:54.728Z,3.25
2019-03-11T02:56:24.636Z,3.23
2019-03-11T02:58:55.315Z,3.17
2019-03-11T03:01:39.443Z,3.19
2019-03-11T03:04:14.220Z,3.20
2019-03-11T03:06:43.961Z,3.15
2019-03-11T03:09:14.563Z,3.11
2019-03-11T03:11:44.323Z,3.01
2019-03-11T03:14:14.276Z,2.93
2019-03-11T03:16:43.894Z,2.98
2019-03-11T03:19:14.547Z,3.00
2019-03-11T03:21:44.327Z,2.92
2019-03-11T03:24:14.143Z,2.94
2019-03-11T03:26:44.126Z,2.90
2019-03-11T03:29:13.785Z,2.95
2019-03-11T03:31:43.438Z,2.95
2019-03-11T03:34:13.461Z,3.06
2019-03-11T03:36:43.360Z,3.00
2019-03-11T03:39:13.373Z,2.92
2019-03-11T03:41:43.374Z,3.01
2019-03-11T03:44:13.214Z,3.13
2019-03-11T03:46:43.220Z,3.07
2019-03-11T03:49:14.119Z,3.16
2019-03-11T03:51:43.826Z,3.16
2019-03-11T03:54:13.514Z,3.17
2019-03-11T03:56:43.216Z,3.28
2019-03-11T03:59:12.937Z,3.19
2019-03-11T04:01:42.687Z,3.10
2019-03-11T04:04:12.625Z,3.16
2019-03-11T04:06:42.849Z,3.17
2019-03-11T04:09:12.956Z,3.31
2019-03-11T04:11:42.607Z,3.29
2019-03-11T04:14:12.235Z,3.24
2019-03-11T04:16:41.900Z,3.16
2019-03-11T04:19:11.537Z,3.21
2019-03-11T04:21:41.156Z,3.27
2019-03-11T04:24:10.942Z,3.30
2019-03-11T04:26:40.579Z,3.16
2019-03-11T04:29:10.304Z,3.25
2019-03-11T04:31:40.382Z,3.15
2019-03-11T04:34:10.173Z,3.08
2019-03-11T04:36:39.911Z,3.13
2019-03-11T04:39:09.889Z,3.08
2019-03-11T04:41:39.557Z,2.93
2019-03-11T04:44:09.516Z,2.91
2019-03-11T04:46:39.470Z,2.82
2019-03-11T04:49:09.513Z,2.76
2019-03-11T04:51:39.098Z,2.70
2019-03-11T04:54:08.754Z,2.67
2019-03-11T04:56:38.780Z,2.58
2019-03-11T04:59:12.634Z,2.52
2019-03-11T05:01:42.281Z,2.32
2019-03-11T05:04:12.036Z,2.30
2019-03-11T05:06:43.053Z,2.27
2019-03-11T05:09:13.717Z,2.23
2019-03-11T05:11:43.724Z,2.23
2019-03-11T05:14:13.391Z,2.19
2019-03-11T05:16:43.003Z,2.20
2019-03-11T05:19:12.698Z,2.20
2019-03-11T05:21:42.660Z,2.36
2019-03-11T05:24:12.831Z,2.34
2019-03-11T05:26:42.569Z,2.43
2019-03-11T05:29:12.330Z,2.52
2019-03-11T05:31:42.318Z,2.41
2019-03-11T05:34:12.631Z,2.21
2019-03-11T05:36:42.273Z,2.41
2019-03-11T05:39:12.069Z,2.44
2019-03-11T05:41:41.690Z,2.58
2019-03-11T05:44:14.437Z,2.54
2019-03-11T05:46:49.280Z,2.48
2019-03-11T05:49:18.877Z,2.42
2019-03-11T05:51:51.411Z,2.38
2019-03-11T05:54:20.367Z,2.40
2019-03-11T05:56:50.078Z,2.40
2019-03-11T05:59:20.673Z,2.32
2019-03-11T06:01:50.333Z,2.40
2019-03-11T06:04:19.968Z,2.25
2019-03-11T06:06:49.677Z,2.51
2019-03-11T06:09:19.422Z,2.49
2019-03-11T06:11:49.687Z,2.33
2019-03-11T06:14:19.411Z,2.41
2019-03-11T06:16:49.262Z,2.40
2019-03-11T06:19:19.015Z,2.46
2019-03-11T06:22:00.775Z,2.49
2019-03-11T06:24:30.754Z,2.44
2019-03-11T06:27:00.349Z,2.46
2019-03-11T06:29:30.981Z,2.69
2019-03-11T06:32:00.637Z,2.63
2019-03-11T06:34:30.273Z,2.67
2019-03-11T06:37:00.280Z,2.70
2019-03-11T06:39:29.962Z,2.70
2019-03-11T06:42:00.193Z,2.74
2019-03-11T06:44:30.158Z,2.84
2019-03-11T06:47:00.310Z,2.86
2019-03-11T06:49:30.446Z,2.88
2019-03-11T06:52:00.073Z,2.93
2019-03-11T06:54:29.766Z,2.99
2019-03-11T06:56:59.477Z,3.13
2019-03-11T06:59:29.123Z,3.31
2019-03-11T07:01:58.752Z,3.46
2019-03-11T07:04:28.496Z,3.41
2019-03-11T07:06:58.144Z,3.27
2019-03-11T07:09:27.959Z,3.42
2019-03-11T07:11:57.581Z,3.31
2019-03-11T07:14:27.276Z,3.33
2019-03-11T07:16:57.249Z,3.53
2019-03-11T07:19:27.132Z,3.56
2019-03-11T07:21:56.745Z,3.67
2019-03-11T07:24:29.729Z,3.78
2019-03-11T07:26:59.361Z,3.61
2019-03-11T07:29:29.239Z,3.72
2019-03-11T07:31:58.896Z,3.53
2019-03-11T07:34:28.911Z,3.73
2019-03-11T07:36:58.782Z,3.65
2019-03-11T07:39:28.464Z,3.78
2019-03-11T07:41:58.074Z,3.95
2019-03-11T07:44:27.700Z,3.96
2019-03-11T07:46:57.326Z,4.06
2019-03-11T07:49:27.263Z,4.10
2019-03-11T07:51:56.863Z,4.16
2019-03-11T07:54:35.446Z,4.32
2019-03-11T07:56:58.144Z,4.11
2019-03-11T07:59:27.888Z,4.00
2019-03-11T08:01:57.872Z,4.26
2019-03-11T08:04:27.929Z,4.38
2019-03-11T08:06:57.811Z,4.38
2019-03-11T08:09:37.196Z,4.29
2019-03-11T08:11:59.313Z,4.30
2019-03-11T08:14:29.030Z,4.26
2019-03-11T08:16:58.706Z,4.61
2019-03-11T08:19:28.337Z,4.75
2019-03-11T08:21:57.948Z,4.89
2019-03-11T08:24:27.813Z,4.91
2019-03-11T08:26:57.495Z,4.33
2019-03-11T08:29:27.508Z,4.86
2019-03-11T08:31:57.369Z,4.83
2019-03-11T08:34:27.298Z,4.87
2019-03-11T08:36:56.991Z,4.86
2019-03-11T08:39:26.978Z,4.86
2019-03-11T08:41:56.839Z,4.63
2019-03-11T08:44:26.469Z,4.45
2019-03-11T08:46:56.131Z,4.54
2019-03-11T08:49:26.004Z,4.34
2019-03-11T08:51:55.688Z,4.32
2019-03-11T08:54:25.808Z,4.48
2019-03-11T08:56:55.790Z,4.31
2019-03-11T08:59:25.982Z,4.14
2019-03-11T09:01:55.713Z,4.22
2019-03-11T09:04:25.337Z,4.32
2019-03-11T09:06:54.979Z,4.32
2019-03-11T09:09:24.933Z,4.31
2019-03-11T09:11:54.567Z,4.43
2019-03-11T09:14:24.194Z,4.40
2019-03-11T09:16:53.934Z,4.26
2019-03-11T09:19:24.129Z,4.29
2019-03-11T09:21:53.775Z,4.40
2019-03-11T09:24:23.485Z,4.34
2019-03-11T09:26:54.566Z,4.35
2019-03-11T09:29:24.181Z,4.39
2019-03-11T09:31:54.025Z,4.43
2019-03-11T09:34:23.684Z,4.18
2019-03-11T09:36:53.329Z,4.48
2019-03-11T09:39:22.972Z,4.48
2019-03-11T09:41:52.933Z,4.57
2019-03-11T09:44:22.607Z,4.59
2019-03-11T09:46:52.225Z,4.38
2019-03-11T09:49:21.956Z,4.59
2019-03-11T09:51:51.598Z,4.48
2019-03-11T09:54:21.226Z,4.55
2019-03-11T09:56:51.910Z,4.56
2019-03-11T09:59:21.581Z,4.76
2019-03-11T10:01:51.216Z,4.51
2019-03-11T10:04:20.890Z,4.47
2019-03-11T10:06:50.515Z,4.53
2019-03-11T10:09:20.152Z,4.54
2019-03-11T10:11:50.574Z,4.39
2019-03-11T10:14:20.207Z,4.55
2019-03-11T10:16:49.870Z,4.42
2019-03-11T10:19:19.910Z,4.42
2019-03-11T10:21:49.749Z,4.53
2019-03-11T10:24:19.742Z,4.53
2019-03-11T10:26:49.794Z,4.26
2019-03-11T10:29:21.232Z,4.02
2019-03-11T10:31:51.089Z,4.03
2019-03-11T10:34:20.755Z,4.23
2019-03-11T10:36:50.652Z,4.55
2019-03-11T10:39:20.600Z,4.87
2019-03-11T10:41:50.584Z,4.62
2019-03-11T10:44:20.275Z,4.71
2019-03-11T10:46:50.125Z,4.76
2019-03-11T10:49:20.146Z,4.66
2019-03-11T10:51:50.160Z,4.70
2019-03-11T10:54:20.202Z,4.51
2019-03-11T10:56:50.300Z,4.53
2019-03-11T10:59:20.597Z,4.45
2019-03-11T11:01:50.639Z,4.52
2019-03-11T11:04:20.510Z,4.80
2019-03-11T11:06:50.444Z,4.54
2019-03-11T11:09:22.586Z,4.46
2019-03-11T11:11:52.549Z,4.64
2019-03-11T11:14:22.182Z,4.68
2019-03-11T11:16:51.828Z,4.71
2019-03-11T11:19:21.538Z,4.90
2019-03-11T11:21:51.181Z,4.82
2019-03-11T11:24:21.112Z,4.82
2019-03-11T11:26:53.036Z,4.92
2019-03-11T11:29:22.960Z,5.13
2019-03-11T11:31:52.578Z,4.93
2019-03-11T11:34:22.874Z,4.78
2019-03-11T11:36:52.530Z,4.99
2019-03-11T11:39:22.183Z,4.83
2019-03-11T11:41:52.128Z,4.77
2019-03-11T11:44:22.334Z,4.70
2019-03-11T11:46:52.363Z,4.62
2019-03-11T11:49:23.244Z,4.55
2019-03-11T11:51:53.208Z,4.69
2019-03-11T11:54:22.841Z,4.71
2019-03-11T11:56:52.452Z,4.84
2019-03-11T11:59:22.098Z,4.95
2019-03-11T12:02:03.634Z,4.79
2019-03-11T12:04:27.843Z,4.70
2019-03-11T12:06:57.641Z,4.68
2019-03-11T12:09:27.267Z,4.68
2019-03-11T12:11:56.927Z,4.82
2019-03-11T12:14:26.767Z,5.00
2019-03-11T12:16:56.413Z,4.82
2019-03-11T12:19:26.367Z,4.93
2019-03-11T12:21:56.011Z,5.11
2019-03-11T12:24:26.008Z,5.42
2019-03-11T12:26:56.152Z,5.97
2019-03-11T12:29:27.875Z,5.49
2019-03-11T12:31:57.435Z,5.49
2019-03-11T12:34:27.052Z,5.74
2019-03-11T12:36:57.006Z,5.60
2019-03-11T12:39:26.909Z,5.72
2019-03-11T12:41:56.536Z,5.78
2019-03-11T12:44:26.431Z,5.89
2019-03-11T12:46:56.309Z,5.61
2019-03-11T12:49:25.920Z,5.60
2019-03-11T12:51:55.611Z,5.68
2019-03-11T12:54:25.513Z,5.25
2019-03-11T12:56:55.268Z,5.42
2019-03-11T12:59:25.845Z,5.44
2019-03-11T13:01:56.258Z,5.88
2019-03-11T13:04:26.281Z,5.74
2019-03-11T13:06:58.896Z,5.66
2019-03-11T13:09:28.540Z,5.43
2019-03-11T13:11:59.185Z,5.50
2019-03-11T13:14:28.821Z,5.48
2019-03-11T13:16:59.429Z,5.36
2019-03-11T13:19:30.173Z,5.08
2019-03-11T13:21:59.927Z,5.15
2019-03-11T13:24:30.228Z,5.29
2019-03-11T13:27:00.281Z,5.44
2019-03-11T13:29:31.190Z,5.44
2019-03-11T13:32:00.872Z,5.79
2019-03-11T13:34:30.611Z,5.89
2019-03-11T13:37:00.307Z,5.95
2019-03-11T13:39:30.025Z,5.84
2019-03-11T13:41:59.628Z,5.76
2019-03-11T13:44:29.548Z,5.74
2019-03-11T13:46:59.350Z,5.69
2019-03-11T13:49:29.386Z,5.51
2019-03-11T13:51:59.097Z,5.55
2019-03-11T13:54:28.767Z,5.36
2019-03-11T13:56:58.437Z,5.37
2019-03-11T13:59:28.598Z,5.13
2019-03-11T14:01:59.040Z,5.04
2019-03-11T14:04:28.701Z,4.82
2019-03-11T14:06:58.642Z,4.75
2019-03-11T14:09:28.623Z,4.40
2019-03-11T14:11:58.269Z,3.77
2019-03-11T14:14:28.225Z,3.38
2019-03-11T14:16:58.217Z,3.24
2019-03-11T14:19:27.849Z,3.42
2019-03-11T14:21:57.481Z,3.32
2019-03-11T14:24:27.158Z,3.15
2019-03-11T14:26:57.029Z,3.06
2019-03-11T14:29:28.788Z,3.28
2019-03-11T14:31:58.918Z,3.31
2019-03-11T14:34:28.845Z,3.29
2019-03-11T14:36:58.536Z,3.51
2019-03-11T14:39:28.241Z,3.40
2019-03-11T14:41:57.990Z,3.42
2019-03-11T14:44:28.578Z,3.61
2019-03-11T14:46:58.471Z,3.53
2019-03-11T14:49:28.125Z,3.59
2019-03-11T14:51:58.056Z,3.75
2019-03-11T14:54:27.848Z,3.74
2019-03-11T14:56:57.468Z,3.97
2019-03-11T14:59:28.119Z,3.96
2019-03-11T15:01:58.324Z,3.85
2019-03-11T15:04:28.352Z,3.77
2019-03-11T15:06:58.005Z,4.03
2019-03-11T15:09:27.917Z,3.92
2019-03-11T15:11:57.771Z,4.01
2019-03-11T15:14:28.631Z,3.96
2019-03-11T15:16:58.515Z,3.96
2019-03-11T15:19:28.254Z,4.14
2019-03-11T15:21:58.163Z,4.16
2019-03-11T15:24:28.170Z,4.07
2019-03-11T15:26:57.854Z,4.17
2019-03-11T15:29:27.835Z,4.24
2019-03-11T15:31:57.814Z,4.19
2019-03-11T15:34:27.898Z,4.30
2019-03-11T15:36:57.655Z,4.29
2019-03-11T15:39:27.346Z,4.22
2019-03-11T15:41:57.184Z,4.34
2019-03-11T15:44:27.685Z,4.31
2019-03-11T15:46:58.685Z,4.47
2019-03-11T15:49:28.396Z,4.44
2019-03-11T15:51:58.374Z,4.44
2019-03-11T15:54:28.007Z,4.50
2019-03-11T15:56:57.984Z,4.49
2019-03-11T15:59:27.628Z,4.42
2019-03-11T16:01:57.296Z,4.13
2019-03-11T16:04:27.036Z,3.88
2019-03-11T16:06:56.686Z,3.88
2019-03-11T16:09:26.359Z,3.92
2019-03-11T16:11:56.135Z,3.84
2019-03-11T16:14:26.724Z,3.83
2019-03-11T16:16:56.940Z,3.98
2019-03-11T16:19:26.784Z,3.90
2019-03-11T16:21:59.422Z,3.88
2019-03-11T16:24:29.370Z,3.97
2019-03-11T16:26:59.052Z,4.14
2019-03-11T16:29:28.690Z,4.16
2019-03-11T16:31:58.309Z,4.22
2019-03-11T16:34:30.034Z,4.28
2019-03-11T16:36:59.902Z,4.30
2019-03-11T16:39:30.752Z,4.25
2019-03-11T16:42:00.483Z,4.28
2019-03-11T16:44:30.114Z,4.31
2019-03-11T16:47:00.128Z,4.42
2019-03-11T16:49:30.089Z,4.48
2019-03-11T16:51:59.782Z,4.56
2019-03-11T16:54:29.632Z,4.51
2019-03-11T16:56:59.312Z,4.56
2019-03-11T16:59:28.975Z,4.57
2019-03-11T17:01:58.596Z,4.69
2019-03-11T17:04:28.313Z,4.65
2019-03-11T17:06:57.967Z,4.63
2019-03-11T17:09:27.702Z,4.64
2019-03-11T17:11:57.649Z,4.59
2019-03-11T17:14:27.363Z,4.59
2019-03-11T17:16:57.018Z,4.64
2019-03-11T17:19:27.036Z,4.60
2019-03-11T17:21:56.669Z,4.58
2019-03-11T17:24:26.286Z,4.66
2019-03-11T17:26:55.916Z,4.37
2019-03-11T17:29:25.798Z,4.26
2019-03-11T17:31:55.509Z,4.41
2019-03-11T17:34:25.329Z,4.42
2019-03-11T17:36:54.995Z,4.30
2019-03-11T17:39:24.629Z,4.35
2019-03-11T17:41:54.306Z,4.21
2019-03-11T17:44:23.924Z,4.35
2019-03-11T17:46:54.033Z,4.21
2019-03-11T17:49:23.647Z,4.12
2019-03-11T17:51:53.477Z,4.23
2019-03-11T17:54:23.821Z,4.18
2019-03-11T17:56:53.717Z,4.17
2019-03-11T17:59:23.609Z,4.03
2019-03-11T18:01:53.645Z,4.02
2019-03-11T18:04:23.385Z,4.00
2019-03-11T18:06:54.423Z,3.96
2019-03-11T18:09:24.160Z,3.99
2019-03-11T18:11:53.832Z,4.08
2019-03-11T18:14:24.788Z,4.07
2019-03-11T18:16:54.751Z,4.10
2019-03-11T18:19:24.639Z,4.17
2019-03-11T18:21:54.385Z,3.99
2019-03-11T18:24:24.021Z,3.91
2019-03-11T18:26:53.635Z,4.03
2019-03-11T18:29:24.248Z,4.10
2019-03-11T18:32:01.553Z,4.00
2019-03-11T18:34:27.102Z,4.03
2019-03-11T18:36:56.753Z,3.97
2019-03-11T18:39:26.671Z,3.96
2019-03-11T18:41:56.679Z,4.00
2019-03-11T18:44:26.343Z,3.98
2019-03-11T18:46:56.075Z,3.95
2019-03-11T18:49:26.019Z,4.06
2019-03-11T18:51:55.718Z,3.95
2019-03-11T18:54:25.724Z,3.97
2019-03-11T18:56:55.671Z,4.03
2019-03-11T18:59:25.813Z,4.12
2019-03-11T19:01:55.743Z,4.06
2019-03-11T19:04:25.504Z,4.08
2019-03-11T19:06:55.409Z,4.07
2019-03-11T19:09:25.209Z,4.09
2019-03-11T19:11:54.838Z,4.01
2019-03-11T19:14:24.473Z,4.05
2019-03-11T19:16:54.294Z,4.05
2019-03-11T19:19:23.965Z,4.17
2019-03-11T19:21:53.652Z,4.12
2019-03-11T19:24:23.501Z,4.07
2019-03-11T19:26:55.658Z,4.12
2019-03-11T19:29:24.848Z,4.13
2019-03-11T19:31:54.497Z,4.11
2019-03-11T19:34:24.130Z,4.11
2019-03-11T19:36:54.412Z,4.13
2019-03-11T19:39:24.075Z,4.17
2019-03-11T19:41:53.739Z,4.21
2019-03-11T19:44:23.900Z,4.23
2019-03-11T19:46:55.638Z,4.18
2019-03-11T19:49:25.986Z,4.12
2019-03-11T19:51:56.379Z,4.03
2019-03-11T19:54:26.554Z,4.13
2019-03-11T19:56:56.475Z,3.98
2019-03-11T19:59:26.812Z,3.96
2019-03-11T20:01:57.026Z,3.95
2019-03-11T20:04:27.875Z,3.90
2019-03-11T20:06:58.969Z,3.91
2019-03-11T20:09:29.237Z,3.86
2019-03-11T20:11:59.863Z,3.92
2019-03-11T20:14:30.056Z,3.85
2019-03-11T20:17:00.196Z,3.88
2019-03-11T20:19:30.666Z,3.89
2019-03-11T20:22:01.001Z,3.85
2019-03-11T20:24:30.921Z,3.85
2019-03-11T20:27:01.956Z,3.75
2019-03-11T20:29:34.337Z,3.84
2019-03-11T20:32:05.432Z,3.79
2019-03-11T20:34:35.440Z,3.77
2019-03-11T20:37:05.161Z,3.79
2019-03-11T20:39:35.062Z,3.73
2019-03-11T20:42:04.988Z,3.74
2019-03-11T20:44:35.694Z,3.72
2019-03-11T20:47:05.462Z,3.75
2019-03-11T20:49:35.154Z,3.75
2019-03-11T20:52:05.128Z,3.80
2019-03-11T20:54:35.240Z,3.80
2019-03-11T20:57:04.894Z,3.67
2019-03-11T20:59:34.658Z,3.80
2019-03-11T21:02:04.530Z,3.77
2019-03-11T21:04:34.743Z,3.87
2019-03-11T21:07:04.634Z,3.87
2019-03-11T21:09:34.741Z,3.87
2019-03-11T21:12:04.505Z,3.85
2019-03-11T21:14:34.278Z,3.79
2019-03-11T21:17:03.948Z,3.85
2019-03-11T21:19:33.916Z,3.93
2019-03-11T21:22:03.568Z,3.94
2019-03-11T21:24:33.741Z,3.95
2019-03-11T21:27:03.379Z,3.92
2019-03-11T21:29:33.533Z,3.86
2019-03-11T21:32:04.497Z,3.86
2019-03-11T21:34:34.500Z,3.88
2019-03-11T21:37:04.241Z,3.98
2019-03-11T21:39:34.079Z,3.96
2019-03-11T21:42:05.646Z,4.01
2019-03-11T21:44:36.161Z,3.97
2019-03-11T21:47:05.915Z,3.99
2019-03-11T21:49:35.995Z,4.06
2019-03-11T21:52:05.881Z,3.98
2019-03-11T21:54:35.662Z,4.05
2019-03-11T21:57:05.555Z,4.12
2019-03-11T21:59:35.207Z,4.11
2019-03-11T22:02:04.898Z,4.10
2019-03-11T22:04:34.623Z,4.05
2019-03-11T22:07:04.373Z,4.07
2019-03-11T22:09:34.020Z,4.06
2019-03-11T22:12:03.768Z,4.02
2019-03-11T22:14:33.545Z,3.98
2019-03-11T22:17:03.692Z,4.08
2019-03-11T22:19:33.338Z,4.12
2019-03-11T22:22:02.970Z,4.07
2019-03-11T22:24:32.847Z,4.15
2019-03-11T22:27:02.787Z,4.11
2019-03-11T22:29:33.563Z,4.17
2019-03-11T22:32:03.143Z,4.17
2019-03-11T22:34:33.470Z,4.21
2019-03-11T22:37:03.143Z,4.18
2019-03-11T22:39:32.787Z,4.19
2019-03-11T22:42:02.435Z,4.25
2019-03-11T22:44:32.111Z,4.06
2019-03-11T22:47:01.756Z,4.03
2019-03-11T22:49:31.427Z,4.08
2019-03-11T22:52:01.136Z,4.18
2019-03-11T22:54:30.769Z,4.21
2019-03-11T22:57:00.748Z,4.14
2019-03-11T22:59:30.875Z,4.04
2019-03-11T23:02:00.656Z,4.07
2019-03-11T23:04:30.351Z,4.16
2019-03-11T23:07:00.305Z,4.12
2019-03-11T23:09:30.341Z,4.11
2019-03-11T23:12:00.001Z,4.15
2019-03-11T23:14:29.703Z,4.16
2019-03-11T23:16:59.347Z,4.14
2019-03-11T23:19:29.452Z,4.07
2019-03-11T23:21:59.095Z,4.12
2019-03-11T23:24:28.774Z,4.08
2019-03-11T23:26:58.480Z,4.14
2019-03-11T23:29:28.102Z,4.18
2019-03-11T23:31:57.744Z,4.14
2019-03-11T23:34:27.647Z,4.18
2019-03-11T23:36:57.560Z,4.19
2019-03-11T23:39:27.255Z,4.21
2019-03-11T23:41:56.898Z,4.17
2019-03-11T23:44:26.549Z,4.14
2019-03-11T23:46:56.251Z,4.23
2019-03-11T23:49:25.905Z,4.20
2019-03-11T23:51:55.777Z,4.25
2019-03-11T23:54:25.547Z,4.19
2019-03-11T23:56:55.175Z,4.19
2019-03-11T23:59:25.366Z,4.18
